Time;durP1;ratioP1;P1;durP2;ratioP2;P2;SDS_P1;SDS_P2;PMS_P1;PMS_P2;Temp;Humidity;BMP_temperature;BMP_pressure;BME280_temperature;BME280_humidity;BME280_pressure;Samples;Min_cycle;Max_cycle;Signal;HPM_P1;HPM_P2
2021/12/21 00:01:54;;;;;;;44.22;14.13;;;;;;;0.57;88.77;102770.53;5012364;28;20072;-42
2021/12/21 00:04:20;;;;;;;45.92;15.35;;;;;;;0.55;89.51;102767.94;5013490;28;20121;-42
2021/12/21 00:06:45;;;;;;;63.92;17.77;;;;;;;0.52;89.66;102768.09;5030938;28;20064;-42
2021/12/21 00:09:10;;;;;;;41.03;15.77;;;;;;;0.52;90.42;102770.75;5032089;28;20072;-42
2021/12/21 00:11:36;;;;;;;51.17;16.45;;;;;;;0.52;89.85;102770.75;5032007;28;20068;-42
2021/12/21 00:19:46;;;;;;;45.53;16.88;;;;;;;0.52;89.90;102772.53;5015209;28;20049;-42
2021/12/21 00:24:59;;;;;;;46.25;15.63;;;;;;;0.46;90.47;102768.38;5015126;28;20485;-42
2021/12/21 00:27:25;;;;;;;47.15;17.17;;;;;;;0.49;90.63;102764.72;5022666;28;20465;-42
2021/12/21 00:29:50;;;;;;;51.90;16.10;;;;;;;0.50;90.62;102779.69;5034629;28;20140;-42
2021/12/21 00:32:16;;;;;;;48.80;16.75;;;;;;;0.47;89.95;102769.22;5035712;28;20038;-41
2021/12/21 00:34:41;;;;;;;52.80;15.02;;;;;;;0.43;89.82;102763.22;5035367;28;20053;-42
2021/12/21 00:37:07;;;;;;;48.22;16.83;;;;;;;0.38;89.81;102759.91;5031344;28;20048;-41
2021/12/21 00:39:33;;;;;;;40.58;15.40;;;;;;;0.38;90.24;102754.63;5016019;28;20034;-42
2021/12/21 00:41:58;;;;;;;51.33;16.65;;;;;;;0.35;90.01;102760.91;5015779;28;20120;-41
2021/12/21 00:44:24;;;;;;;47.28;15.57;;;;;;;0.32;90.39;102753.09;5016105;28;20061;-42
2021/12/21 00:46:49;;;;;;;49.53;16.30;;;;;;;0.32;89.79;102752.25;5030621;28;20052;-42
2021/12/21 00:49:16;;;;;;;46.55;16.08;;;;;;;0.33;90.74;102753.97;5014264;28;20037;-42
2021/12/21 00:51:43;;;;;;;45.63;16.35;;;;;;;0.34;90.64;102753.03;5016503;28;20029;-42
2021/12/21 00:54:10;;;;;;;40.10;15.85;;;;;;;0.31;90.29;102747.88;5028051;28;20029;-41
2021/12/21 00:56:36;;;;;;;47.92;17.00;;;;;;;0.28;90.33;102753.31;5020825;28;20034;-41
2021/12/21 00:59:03;;;;;;;44.30;15.65;;;;;;;0.25;89.61;102748.16;5030224;28;20112;-42
2021/12/21 01:01:28;;;;;;;37.05;14.60;;;;;;;0.16;89.52;102737.03;5035479;28;20033;-41
2021/12/21 01:03:56;;;;;;;39.55;14.13;;;;;;;0.16;90.65;102729.09;5033293;28;20037;-42
2021/12/21 01:09:08;;;;;;;37.72;14.68;;;;;;;0.09;90.49;102737.38;5016111;28;20437;-41
2021/12/21 01:11:40;;;;;;;40.63;15.20;;;;;;;0.08;91.10;102741.81;5014688;28;20032;-42
2021/12/21 01:17:04;;;;;;;42.15;14.23;;;;;;;0.10;91.29;102731.16;5020479;28;20076;-41
2021/12/21 01:19:38;;;;;;;45.58;14.95;;;;;;;0.10;91.57;102734.66;5018887;28;20144;-42
2021/12/21 01:22:35;;;;;;;39.33;13.90;;;;;;;0.07;91.10;102734.78;5015468;28;20034;-41
2021/12/21 01:25:34;;;;;;;45.67;14.40;;;;;;;0.04;90.84;102734.94;5019532;28;20116;-42
2021/12/21 01:28:14;;;;;;;37.25;13.90;;;;;;;0.02;91.23;102726.19;5025854;28;20034;-42
2021/12/21 01:33:40;;;;;;;42.67;13.68;;;;;;;0.04;91.18;102724.34;5014599;28;20422;-41
2021/12/21 01:36:14;;;;;;;40.58;14.55;;;;;;;0.05;90.85;102720.75;5014499;28;20049;-41
2021/12/21 01:39:04;;;;;;;34.28;12.88;;;;;;;0.02;90.88;102725.31;5013588;28;20088;-41
2021/12/21 01:42:19;;;;;;;38.13;13.43;;;;;;;0.01;91.29;102719.19;5014497;28;20042;-41
2021/12/21 01:49:42;;;;;;;26.95;12.05;;;;;;;-0.07;91.04;102723.94;5034333;28;20056;-41
2021/12/21 01:52:12;;;;;;;38.53;13.05;;;;;;;-0.06;91.09;102717.72;5034012;28;20465;-41
2021/12/21 01:54:37;;;;;;;35.13;13.20;;;;;;;-0.11;91.18;102725.00;5031247;28;20462;-42
2021/12/21 01:57:04;;;;;;;35.08;11.95;;;;;;;-0.15;90.77;102720.78;5019933;28;20036;-42
2021/12/21 01:59:29;;;;;;;35.75;12.80;;;;;;;-0.20;90.51;102720.97;5032684;28;20088;-41
2021/12/21 02:01:55;;;;;;;34.75;12.93;;;;;;;-0.29;89.87;102711.66;5034023;28;20072;-41
2021/12/21 02:04:20;;;;;;;37.22;13.02;;;;;;;-0.29;90.61;102713.41;5026511;28;20038;-42
2021/12/21 02:06:48;;;;;;;42.72;12.85;;;;;;;-0.31;90.96;102713.50;5016734;28;20075;-43
2021/12/21 02:09:14;;;;;;;30.23;12.45;;;;;;;-0.28;91.63;102708.06;5032579;28;20036;-42
2021/12/21 02:11:39;;;;;;;40.17;13.88;;;;;;;-0.30;91.24;102709.06;5032383;28;20120;-41
2021/12/21 02:14:08;;;;;;;30.23;12.05;;;;;;;-0.31;91.35;102713.50;5030433;28;20432;-42
2021/12/21 02:16:44;;;;;;;28.42;11.70;;;;;;;-0.33;91.07;102703.91;5022093;28;20095;-41
2021/12/21 02:19:31;;;;;;;38.03;13.32;;;;;;;-0.36;91.01;102706.69;5034001;28;20030;-41
2021/12/21 02:22:07;;;;;;;38.45;12.15;;;;;;;-0.35;91.40;102711.91;5033317;28;20040;-41
2021/12/21 02:24:40;;;;;;;37.13;12.73;;;;;;;-0.36;91.63;102707.53;5033154;28;20156;-42
2021/12/21 02:27:18;;;;;;;28.25;12.50;;;;;;;-0.34;91.92;102708.34;5023804;28;20536;-42
2021/12/21 02:29:43;;;;;;;34.03;12.07;;;;;;;-0.35;91.82;102705.75;5012651;28;20087;-42
2021/12/21 02:32:12;;;;;;;34.63;13.18;;;;;;;-0.35;91.69;102698.66;5013836;28;20022;-42
2021/12/21 02:34:38;;;;;;;37.25;12.15;;;;;;;-0.36;91.74;102709.34;5014246;28;20057;-41
2021/12/21 02:37:03;;;;;;;37.17;12.65;;;;;;;-0.34;91.89;102710.09;5021199;28;20488;-42
2021/12/21 02:39:28;;;;;;;29.85;11.60;;;;;;;-0.34;91.41;102702.16;5034450;28;20108;-42
2021/12/21 02:41:54;;;;;;;32.72;12.57;;;;;;;-0.40;90.93;102700.66;5035042;28;20195;-42
2021/12/21 02:44:20;;;;;;;35.80;11.18;;;;;;;-0.44;91.00;102701.72;5033975;28;20040;-42
2021/12/21 02:46:45;;;;;;;32.08;12.18;;;;;;;-0.46;90.87;102703.56;5031384;28;20068;-41
2021/12/21 02:49:11;;;;;;;36.83;12.13;;;;;;;-0.49;91.09;102714.28;5033377;28;20040;-43
2021/12/21 02:51:42;;;;;;;36.05;12.23;;;;;;;-0.49;91.68;102714.28;5033174;28;20029;-42
2021/12/21 02:54:10;;;;;;;34.45;11.93;;;;;;;-0.48;91.78;102708.06;5033132;28;20132;-42
2021/12/21 02:56:35;;;;;;;46.35;12.55;;;;;;;-0.49;91.47;102714.28;5023591;28;20030;-42
2021/12/21 02:59:01;;;;;;;40.88;12.23;;;;;;;-0.53;91.41;102708.22;5013251;28;20029;-41
2021/12/21 03:01:28;;;;;;;37.50;11.40;;;;;;;-0.51;91.40;102705.53;5014468;28;20068;-41
2021/12/21 03:03:53;;;;;;;33.40;11.18;;;;;;;-0.52;91.74;102704.69;5013201;28;20049;-42
2021/12/21 03:09:55;;;;;;;35.30;11.75;;;;;;;-0.56;91.42;102712.81;5001538;28;20048;-42
2021/12/21 03:11:57;;;;;;;29.98;11.75;;;;;;;-0.61;91.31;102707.69;5010174;28;20037;-42
2021/12/21 03:14:24;;;;;;;32.85;11.57;;;;;;;-0.58;91.82;102709.34;5013448;28;20125;-42
2021/12/21 03:16:50;;;;;;;37.67;12.88;;;;;;;-0.56;91.81;102703.06;5014029;28;20042;-42
2021/12/21 03:19:15;;;;;;;33.95;11.48;;;;;;;-0.56;91.93;102708.38;5013119;28;20488;-42
2021/12/21 03:21:40;;;;;;;30.85;11.13;;;;;;;-0.58;91.74;102701.41;5012847;28;20034;-42
2021/12/21 03:24:06;;;;;;;36.47;12.35;;;;;;;-0.58;91.74;102698.78;5011658;28;20108;-42
2021/12/21 03:26:32;;;;;;;35.67;11.93;;;;;;;-0.59;92.00;102699.72;5020689;28;20195;-42
2021/12/21 03:28:57;;;;;;;35.15;12.52;;;;;;;-0.58;92.24;102688.19;5013246;28;20088;-42
2021/12/21 03:31:24;;;;;;;30.73;13.27;;;;;;;-0.56;92.35;102696.94;5012947;28;20034;-43
2021/12/21 03:33:50;;;;;;;34.22;11.30;;;;;;;-0.58;92.33;102698.78;5011393;28;20034;-41
2021/12/21 03:36:19;;;;;;;41.47;12.35;;;;;;;-0.57;92.25;102693.44;5027899;28;20037;-43
2021/12/21 03:38:55;;;;;;;26.35;10.90;;;;;;;-0.66;91.76;102701.72;5032845;28;20037;-43
2021/12/21 03:41:21;;;;;;;32.10;11.57;;;;;;;-0.66;91.67;102691.16;5032313;28;20037;-40
2021/12/21 03:43:46;;;;;;;40.75;12.40;;;;;;;-0.74;91.80;102693.25;5032563;28;20044;-41
2021/12/21 03:46:14;;;;;;;34.97;11.45;;;;;;;-0.85;91.00;102698.13;5025447;28;20037;-41
2021/12/21 03:48:42;;;;;;;38.78;12.15;;;;;;;-0.87;91.49;102687.63;5012144;28;20113;-42
2021/12/21 03:51:08;;;;;;;38.17;12.77;;;;;;;-0.85;92.01;102677.84;5012580;28;20079;-43
2021/12/21 03:53:34;;;;;;;35.95;12.52;;;;;;;-0.86;92.16;102685.84;5022389;28;20128;-42
2021/12/21 03:56:15;;;;;;;31.77;10.52;;;;;;;-0.88;91.96;102683.25;5029239;28;20044;-41
2021/12/21 03:58:41;;;;;;;30.35;10.80;;;;;;;-0.89;91.99;102684.19;5031399;28;20033;-43
2021/12/21 04:01:06;;;;;;;34.15;11.88;;;;;;;-0.88;92.43;102685.91;5031935;28;20048;-42
2021/12/21 04:03:32;;;;;;;32.97;11.45;;;;;;;-0.89;92.50;102684.19;5032245;28;20029;-43
2021/12/21 04:05:57;;;;;;;39.08;12.82;;;;;;;-0.88;92.61;102685.91;5023377;28;20448;-42
2021/12/21 04:08:22;;;;;;;35.35;11.82;;;;;;;-0.89;92.21;102678.91;5032306;28;20396;-41
2021/12/21 04:10:48;;;;;;;26.05;11.13;;;;;;;-0.90;92.06;102672.75;5032186;28;20481;-44
2021/12/21 04:13:13;;;;;;;35.88;12.30;;;;;;;-0.91;92.28;102665.75;5032108;28;20026;-42
2021/12/21 04:15:42;;;;;;;33.00;10.57;;;;;;;-0.91;91.86;102670.19;5021712;28;20018;-42
2021/12/21 04:18:11;;;;;;;27.20;12.10;;;;;;;-0.93;91.91;102667.59;5011318;28;20034;-43
2021/12/21 04:20:38;;;;;;;31.15;11.63;;;;;;;-0.91;92.23;102651.69;5011552;28;20037;-41
2021/12/21 04:23:04;;;;;;;35.25;11.88;;;;;;;-0.90;92.69;102656.03;5011439;28;20060;-43
2021/12/21 04:25:29;;;;;;;38.97;11.80;;;;;;;-0.93;92.36;102650.88;5020709;28;20029;-41
2021/12/21 04:27:55;;;;;;;41.83;12.55;;;;;;;-0.92;92.37;102652.63;5012737;28;20041;-43
2021/12/21 04:30:20;;;;;;;35.33;12.20;;;;;;;-0.93;92.67;102654.38;5012407;28;20042;-43
2021/12/21 04:32:45;;;;;;;27.75;12.18;;;;;;;-0.95;92.87;102656.25;5012428;28;20061;-42
2021/12/21 04:35:11;;;;;;;33.00;12.80;;;;;;;-0.93;92.85;102658.81;5011335;28;20036;-42
2021/12/21 04:37:43;;;;;;;39.53;12.75;;;;;;;-0.92;93.29;102669.31;5031236;28;20037;-42
2021/12/21 04:40:14;;;;;;;31.15;11.68;;;;;;;-0.91;93.12;102670.19;5031679;28;20045;-42
2021/12/21 04:42:39;;;;;;;36.28;11.45;;;;;;;-0.90;92.98;102661.31;5032040;28;20030;-43
2021/12/21 04:45:04;;;;;;;36.47;11.38;;;;;;;-0.89;92.80;102663.91;5031734;28;20024;-42
2021/12/21 04:47:30;;;;;;;33.40;11.27;;;;;;;-0.92;92.53;102657.91;5013611;28;20092;-42
2021/12/21 04:49:55;;;;;;;32.70;12.02;;;;;;;-0.92;92.65;102668.47;5011982;28;20420;-42
2021/12/21 04:52:21;;;;;;;31.55;11.65;;;;;;;-0.91;92.59;102664.88;5011514;28;20042;-43
2021/12/21 04:54:46;;;;;;;36.53;11.43;;;;;;;-0.95;92.48;102664.16;5011091;28;20036;-42
2021/12/21 04:57:11;;;;;;;36.95;11.30;;;;;;;-0.97;92.51;102665.16;5010735;28;20030;-42
2021/12/21 04:59:37;;;;;;;35.97;12.32;;;;;;;-1.02;92.19;102659.19;5028757;28;20038;-43
2021/12/21 05:02:02;;;;;;;39.55;11.52;;;;;;;-1.08;91.44;102659.41;5035456;28;20030;-41
2021/12/21 05:04:28;;;;;;;50.40;11.57;;;;;;;-1.12;91.60;102661.34;5033556;28;20091;-43
2021/12/21 05:06:53;;;;;;;36.75;11.38;;;;;;;-1.17;91.73;102658.00;5014786;28;20065;-41
2021/12/21 05:09:25;;;;;;;35.97;11.68;;;;;;;-1.20;92.23;102655.50;5015469;28;20033;-43
2021/12/21 05:11:51;;;;;;;34.63;13.23;;;;;;;-1.22;92.82;102649.41;5015637;28;20049;-42
2021/12/21 05:14:16;;;;;;;32.03;12.02;;;;;;;-1.19;92.91;102654.56;5015971;28;20038;-42
2021/12/21 05:16:42;;;;;;;40.42;12.65;;;;;;;-1.17;93.19;102653.59;5025826;28;20108;-42
2021/12/21 05:19:07;;;;;;;35.35;11.93;;;;;;;-1.15;93.33;102651.75;5017659;28;20044;-43
2021/12/21 05:21:33;;;;;;;32.25;12.45;;;;;;;-1.16;92.63;102655.31;5024529;28;20377;-44
2021/12/21 05:23:58;;;;;;;32.72;12.02;;;;;;;-1.12;93.02;102656.06;5014870;28;20466;-42
2021/12/21 05:26:23;;;;;;;34.38;12.45;;;;;;;-1.14;92.89;102650.81;5015135;28;20053;-43
2021/12/21 05:28:49;;;;;;;35.70;12.73;;;;;;;-1.08;92.72;102651.50;5013544;28;20749;-43
2021/12/21 05:31:14;;;;;;;39.05;13.70;;;;;;;-1.12;92.85;102648.97;5021053;28;20079;-42
2021/12/21 05:33:39;;;;;;;34.88;12.25;;;;;;;-1.12;92.72;102645.47;5034304;28;20104;-43
2021/12/21 05:36:05;;;;;;;35.47;13.05;;;;;;;-1.12;92.66;102651.63;5034732;28;20137;-42
2021/12/21 05:38:33;;;;;;;45.97;14.35;;;;;;;-1.12;92.73;102646.34;5034409;28;20103;-43
2021/12/21 05:41:02;;;;;;;44.35;13.65;;;;;;;-1.17;92.66;102647.44;5034158;28;20021;-42
2021/12/21 05:43:28;;;;;;;28.23;12.85;;;;;;;-1.18;92.52;102649.22;5033401;28;20392;-43
2021/12/21 05:45:53;;;;;;;39.78;12.90;;;;;;;-1.19;92.64;102649.28;5028443;28;20030;-42
2021/12/21 05:48:18;;;;;;;35.97;13.90;;;;;;;-1.18;92.42;102646.59;5012907;28;20100;-41
2021/12/21 05:50:44;;;;;;;41.20;13.57;;;;;;;-1.18;93.31;102657.16;5014021;28;20026;-40
2021/12/21 05:53:09;;;;;;;46.80;13.88;;;;;;;-1.22;92.75;102659.97;5014512;28;20472;-43
2021/12/21 05:55:35;;;;;;;36.42;13.18;;;;;;;-1.23;92.91;102661.75;5014207;28;20058;-43
2021/12/21 05:58:00;;;;;;;36.00;13.27;;;;;;;-1.21;93.12;102654.66;5013532;28;20052;-42
2021/12/21 06:00:29;;;;;;;28.88;13.02;;;;;;;-1.21;92.57;102662.56;5016958;28;20049;-42
2021/12/21 06:02:54;;;;;;;31.20;12.98;;;;;;;-1.16;93.36;102665.00;5033209;28;20033;-42
2021/12/21 06:05:20;;;;;;;43.58;14.60;;;;;;;-1.14;93.07;102658.75;5034160;28;20024;-42
2021/12/21 06:07:48;;;;;;;36.65;12.70;;;;;;;-1.12;92.97;102667.47;5032095;28;20060;-42
2021/12/21 06:10:18;;;;;;;;;;;;;;;-1.16;92.93;102671.19;5033561;28;20032;-42
2021/12/21 06:15:57;;;;;;;38.63;14.10;;;;;;;-1.18;92.89;102657.16;5030511;28;20064;-42
2021/12/21 06:26:35;;;;;;;38.88;15.75;;;;;;;-1.33;93.12;102647.19;5020354;28;20550;-43
2021/12/21 06:29:00;;;;;;;39.45;15.45;;;;;;;-1.30;93.18;102649.72;5029571;28;20116;-44
2021/12/21 06:31:26;;;;;;;56.42;16.63;;;;;;;-1.29;92.98;102653.22;5012296;28;20116;-43
2021/12/21 06:33:51;;;;;;;37.92;15.23;;;;;;;-1.33;93.28;102660.41;5011977;28;20025;-42
2021/12/21 06:36:17;;;;;;;46.08;14.15;;;;;;;-1.33;92.89;102650.69;5018299;28;20394;-42
2021/12/21 06:38:42;;;;;;;49.78;16.52;;;;;;;-1.36;92.88;102653.47;5026892;28;20030;-43
2021/12/21 06:41:08;;;;;;;45.25;15.43;;;;;;;-1.38;92.67;102652.66;5014624;28;20113;-43
2021/12/21 06:43:33;;;;;;;36.75;15.93;;;;;;;-1.36;92.55;102656.09;4998007;28;20041;-42
2021/12/21 06:53:41;;;;;;;53.17;17.58;;;;;;;-1.35;92.82;102656.94;5016602;28;20696;-42
2021/12/21 06:56:08;;;;;;;35.45;15.88;;;;;;;-1.41;93.39;102654.56;5017797;28;20022;-43
2021/12/21 06:58:34;;;;;;;44.80;15.68;;;;;;;-1.33;92.96;102655.13;5018377;28;20476;-42
2021/12/21 07:01:00;;;;;;;37.03;16.35;;;;;;;-1.33;93.01;102655.97;5012211;28;20057;-43
2021/12/21 07:03:25;;;;;;;39.08;15.75;;;;;;;-1.35;93.27;102659.59;5025374;28;20496;-42
2021/12/21 07:05:51;;;;;;;44.15;17.52;;;;;;;-1.40;93.05;102661.56;5012182;28;20038;-43
2021/12/21 07:08:22;;;;;;;41.47;15.98;;;;;;;-1.35;93.08;102659.59;5017144;28;20109;-43
2021/12/21 07:11:07;;;;;;;34.72;16.25;;;;;;;-1.39;93.25;102658.00;5024852;28;20033;-42
2021/12/21 07:19:00;;;;;;;39.42;15.13;;;;;;;-1.43;93.04;102651.97;5018537;28;20075;-42
2021/12/21 07:21:26;;;;;;;40.55;15.98;;;;;;;-1.41;93.35;102663.34;5015091;28;20033;-42
2021/12/21 07:23:51;;;;;;;46.55;16.55;;;;;;;-1.41;92.97;102665.13;5030568;28;20029;-43
2021/12/21 07:26:17;;;;;;;41.42;15.02;;;;;;;-1.43;93.41;102662.53;5025657;28;20033;-43
2021/12/21 07:28:43;;;;;;;39.13;15.80;;;;;;;-1.34;93.49;102661.34;5011613;28;20026;-42
2021/12/21 07:31:09;;;;;;;40.92;17.25;;;;;;;-1.26;92.79;102664.53;5015771;28;20038;-42
2021/12/21 07:33:35;;;;;;;38.90;17.08;;;;;;;-1.29;93.00;102666.41;5022328;28;20033;-42
2021/12/21 07:36:00;;;;;;;48.28;16.88;;;;;;;-1.28;93.05;102658.44;5012613;28;20029;-41
2021/12/21 07:38:30;;;;;;;41.97;16.02;;;;;;;-1.27;93.27;102662.78;5031706;28;20032;-42
2021/12/21 07:40:55;;;;;;;39.97;16.08;;;;;;;-1.29;92.88;102667.31;5032155;28;20485;-43
2021/12/21 07:43:20;;;;;;;46.28;16.65;;;;;;;-1.27;92.83;102665.44;5019465;28;20030;-43
2021/12/21 07:45:46;;;;;;;50.03;18.05;;;;;;;-1.28;92.86;102653.16;5013549;28;20037;-43
2021/12/21 07:48:11;;;;;;;35.53;16.38;;;;;;;-1.26;92.99;102659.25;5013076;28;20029;-43
2021/12/21 07:50:37;;;;;;;36.20;16.33;;;;;;;-1.25;93.20;102663.59;5011585;28;20045;-42
2021/12/21 07:53:03;;;;;;;38.47;15.93;;;;;;;-1.19;92.94;102671.28;5010718;28;20048;-43
2021/12/21 07:55:28;;;;;;;41.53;17.20;;;;;;;-1.09;92.64;102670.91;5011368;28;20052;-42
2021/12/21 07:57:54;;;;;;;41.38;15.95;;;;;;;-1.02;92.80;102667.97;5011701;28;20388;-41
2021/12/21 08:00:21;;;;;;;32.03;15.02;;;;;;;-0.94;92.27;102670.31;5012173;28;20450;-42
2021/12/21 08:02:47;;;;;;;36.70;16.60;;;;;;;-0.95;92.08;102669.44;5012175;28;20440;-43
2021/12/21 08:05:13;;;;;;;39.50;16.65;;;;;;;-0.99;91.71;102677.56;5012449;28;20065;-42
2021/12/21 08:07:47;;;;;;;37.67;15.85;;;;;;;-1.00;92.08;102687.28;5012059;28;20066;-43
2021/12/21 08:10:28;;;;;;;41.65;16.10;;;;;;;-1.01;92.00;102680.25;5012432;28;20105;-43
2021/12/21 08:12:54;;;;;;;34.47;15.85;;;;;;;-0.98;92.45;102689.84;5012196;28;20044;-43
2021/12/21 08:18:41;;;;;;;53.95;17.45;;;;;;;-0.96;92.65;102693.28;5028528;28;20448;-43
2021/12/21 08:21:06;;;;;;;38.15;15.68;;;;;;;-0.98;92.50;102697.78;5018260;28;20026;-43
2021/12/21 08:23:32;;;;;;;48.97;17.90;;;;;;;-0.78;92.75;102697.81;5023579;28;20034;-42
2021/12/21 08:25:57;;;;;;;39.55;17.15;;;;;;;-0.25;93.34;102712.38;5030366;28;20060;-43
2021/12/21 08:28:23;;;;;;;34.13;16.00;;;;;;;0.55;94.78;102709.66;5028510;28;20377;-43
2021/12/21 08:30:49;;;;;;;38.63;15.23;;;;;;;1.58;94.84;102717.97;5028771;28;20034;-43
2021/12/21 08:33:14;;;;;;;41.30;14.25;;;;;;;2.55;95.75;102708.41;5025458;28;20481;-43
2021/12/21 08:35:40;;;;;;;33.38;11.70;;;;;;;3.00;86.52;102705.94;5032533;28;20033;-44
2021/12/21 08:38:08;;;;;;;26.40;10.68;;;;;;;3.40;75.65;102709.00;5027198;28;20060;-42
2021/12/21 08:40:40;;;;;;;34.67;11.10;;;;;;;4.10;75.19;102702.09;5022846;28;20030;-42
2021/12/21 08:43:07;;;;;;;28.33;10.10;;;;;;;4.37;69.83;102710.22;5025103;28;20029;-42
2021/12/21 08:45:33;;;;;;;32.28;11.35;;;;;;;5.03;69.00;102714.00;5028586;28;20052;-43
2021/12/21 08:47:59;;;;;;;22.13;10.00;;;;;;;5.86;66.59;102707.59;5029073;28;20069;-43
2021/12/21 08:50:25;;;;;;;27.10;10.07;;;;;;;6.02;65.52;102710.97;5016994;28;20508;-43
2021/12/21 08:52:50;;;;;;;24.25;10.00;;;;;;;6.26;64.34;102704.88;5023002;28;20041;-44
2021/12/21 08:55:17;;;;;;;28.00;10.07;;;;;;;6.16;63.55;102696.63;5023437;28;20022;-43
2021/12/21 08:57:43;;;;;;;30.02;10.80;;;;;;;5.85;64.06;102698.75;5027234;28;20080;-44
2021/12/21 09:00:09;;;;;;;25.25;10.50;;;;;;;5.71;64.64;102701.50;5018547;28;20579;-43
2021/12/21 09:02:36;;;;;;;23.40;9.68;;;;;;;5.75;63.84;102702.16;5028607;28;20029;-43
2021/12/21 09:05:11;;;;;;;27.47;10.30;;;;;;;5.42;64.87;102695.44;5032051;28;20097;-43
2021/12/21 09:07:38;;;;;;;26.25;10.88;;;;;;;5.58;63.25;102695.28;5017172;28;20291;-43
2021/12/21 09:10:04;;;;;;;32.25;10.98;;;;;;;5.18;64.23;102698.78;5028440;28;20033;-43
2021/12/21 09:12:29;;;;;;;28.25;10.18;;;;;;;5.12;64.97;102695.69;5005619;28;20032;-43
2021/12/21 09:14:54;;;;;;;25.42;11.35;;;;;;;5.11;64.46;102699.28;5028973;28;20032;-42
2021/12/21 09:17:19;;;;;;;25.38;10.35;;;;;;;5.34;64.36;102703.13;5015425;28;20018;-42
2021/12/21 09:19:45;;;;;;;29.08;9.93;;;;;;;5.81;62.53;102702.56;5016746;28;20025;-42
2021/12/21 09:22:10;;;;;;;31.60;11.07;;;;;;;5.87;62.29;102702.19;5034579;28;20443;-43
2021/12/21 09:24:36;;;;;;;23.58;10.43;;;;;;;6.06;63.26;102691.09;5034343;28;20029;-43
2021/12/21 09:27:01;;;;;;;21.95;10.43;;;;;;;6.52;61.66;102697.66;5033727;28;20088;-43
2021/12/21 09:29:27;;;;;;;24.88;9.70;;;;;;;6.75;59.70;102694.19;5033959;28;20029;-44
2021/12/21 09:31:52;;;;;;;26.92;10.25;;;;;;;7.20;57.97;102701.63;5032280;28;20462;-43
2021/12/21 09:34:17;;;;;;;28.23;10.80;;;;;;;7.50;57.24;102690.41;5030441;28;20033;-43
2021/12/21 09:36:43;;;;;;;28.42;11.75;;;;;;;7.18;56.19;102684.81;5033573;28;20040;-43
2021/12/21 09:39:08;;;;;;;28.50;11.38;;;;;;;7.52;55.87;102683.13;5033739;28;20025;-43
2021/12/21 09:41:33;;;;;;;28.77;11.00;;;;;;;7.91;54.58;102695.28;5033797;28;20035;-43
2021/12/21 09:44:00;;;;;;;24.77;10.38;;;;;;;7.82;57.31;102697.81;5017568;28;20042;-42
2021/12/21 09:46:26;;;;;;;25.33;11.35;;;;;;;7.84;57.27;102702.09;5020316;28;20116;-43
2021/12/21 09:48:51;;;;;;;22.05;10.25;;;;;;;7.62;56.69;102699.38;5035678;28;20135;-44
2021/12/21 09:51:16;;;;;;;28.35;10.32;;;;;;;8.00;56.65;102696.41;5033954;28;20135;-43
2021/12/21 09:53:43;;;;;;;27.02;11.45;;;;;;;8.32;54.78;102693.00;5027708;28;20045;-44
2021/12/21 09:56:08;;;;;;;24.95;10.68;;;;;;;8.42;55.26;102695.84;5016101;28;20045;-44
2021/12/21 09:58:35;;;;;;;28.67;11.85;;;;;;;9.12;52.17;102697.34;5021207;28;20112;-44
2021/12/21 10:01:00;;;;;;;21.98;10.75;;;;;;;9.01;53.74;102700.91;5020088;28;20445;-43
2021/12/21 10:03:26;;;;;;;28.95;10.60;;;;;;;9.84;49.79;102705.53;5029556;28;20071;-43
2021/12/21 10:06:01;;;;;;;26.55;10.65;;;;;;;9.32;49.87;102701.91;5020701;28;20032;-42
2021/12/21 10:08:30;;;;;;;25.33;11.15;;;;;;;8.19;53.00;102694.94;5033423;28;20032;-43
2021/12/21 10:10:55;;;;;;;27.88;12.40;;;;;;;7.21;56.03;102696.19;5028119;28;20022;-43
2021/12/21 10:13:23;;;;;;;26.48;11.20;;;;;;;6.42;58.93;102691.25;5022834;28;20382;-43
2021/12/21 10:15:51;;;;;;;24.40;11.75;;;;;;;5.85;60.86;102681.88;5024555;28;20026;-43
2021/12/21 10:18:27;;;;;;;34.83;12.13;;;;;;;5.68;61.37;102685.69;5032803;28;20064;-43
2021/12/21 10:20:53;;;;;;;27.13;11.07;;;;;;;5.61;61.09;102681.69;5031089;28;20029;-43
2021/12/21 10:23:24;;;;;;;30.90;11.02;;;;;;;5.44;61.68;102694.38;5029628;28;20116;-42
2021/12/21 10:26:10;;;;;;;26.85;11.38;;;;;;;5.60;62.01;102696.03;5031180;28;20060;-44
2021/12/21 10:28:37;;;;;;;30.65;12.20;;;;;;;5.90;63.19;102690.41;5028000;28;20405;-43
2021/12/21 10:31:09;;;;;;;29.90;13.93;;;;;;;6.07;60.63;102673.22;5030881;28;20565;-42
2021/12/21 10:33:36;;;;;;;28.00;11.30;;;;;;;5.87;61.79;102663.88;5034416;28;20064;-43
2021/12/21 10:36:04;;;;;;;30.27;10.77;;;;;;;6.52;59.91;102662.91;5033002;28;20105;-44
2021/12/21 10:38:52;;;;;;;29.63;11.05;;;;;;;6.40;58.20;102664.66;5032742;28;20549;-44
2021/12/21 10:41:31;;;;;;;23.17;11.57;;;;;;;6.02;61.42;102656.66;5028695;28;20061;-44
2021/12/21 10:44:11;;;;;;;26.48;10.90;;;;;;;5.40;61.61;102655.50;5034858;28;20508;-44
2021/12/21 10:46:39;;;;;;;25.13;10.68;;;;;;;4.93;62.43;102656.00;5032414;28;20056;-44
2021/12/21 10:49:10;;;;;;;27.00;11.07;;;;;;;5.27;63.68;102659.97;5032484;28;20026;-44
2021/12/21 10:51:37;;;;;;;23.98;10.30;;;;;;;4.90;63.04;102659.72;5031205;28;20080;-44
2021/12/21 10:54:02;;;;;;;26.20;10.25;;;;;;;4.83;61.94;102656.59;5032578;28;20488;-44
2021/12/21 10:56:28;;;;;;;25.27;10.35;;;;;;;4.73;63.65;102665.31;5032288;28;20060;-42
2021/12/21 10:58:53;;;;;;;23.05;10.07;;;;;;;4.77;61.57;102656.16;5031576;28;20045;-43
2021/12/21 11:01:27;;;;;;;22.55;9.63;;;;;;;4.69;60.58;102659.31;5032364;28;20037;-43
2021/12/21 11:03:54;;;;;;;25.92;9.43;;;;;;;4.76;59.85;102660.59;5026176;28;20030;-45
2021/12/21 11:06:33;;;;;;;21.13;8.70;;;;;;;5.22;58.60;102662.09;5031264;28;20101;-43
2021/12/21 11:08:58;;;;;;;25.80;9.57;;;;;;;5.27;57.77;102652.81;5032215;28;20104;-44
2021/12/21 11:11:32;;;;;;;20.65;8.57;;;;;;;5.33;57.21;102645.34;5032248;28;20433;-44
2021/12/21 11:14:14;;;;;;;31.13;9.63;;;;;;;5.94;56.25;102639.34;5025322;28;20381;-44
2021/12/21 11:16:42;;;;;;;18.13;8.80;;;;;;;6.28;54.68;102631.59;5012421;28;20477;-43
2021/12/21 11:19:10;;;;;;;21.40;8.70;;;;;;;6.15;55.66;102630.78;5012777;28;20029;-42
2021/12/21 11:21:36;;;;;;;24.00;9.63;;;;;;;6.18;55.03;102632.38;5024586;28;20027;-45
2021/12/21 11:24:04;;;;;;;27.80;9.80;;;;;;;6.41;54.71;102630.72;5022075;28;20080;-43
2021/12/21 11:26:32;;;;;;;22.98;9.55;;;;;;;6.74;55.46;102635.41;5014640;28;20089;-44
2021/12/21 11:29:01;;;;;;;22.13;9.32;;;;;;;6.97;55.36;102636.41;5031368;28;20022;-44
2021/12/21 11:31:27;;;;;;;24.25;9.55;;;;;;;8.06;52.46;102628.06;5030766;28;20034;-45
2021/12/21 11:33:56;;;;;;;27.50;9.23;;;;;;;8.84;50.40;102629.78;5027987;28;20103;-44
2021/12/21 11:39:07;;;;;;;26.73;9.98;;;;;;;7.51;53.94;102616.28;5012293;28;20453;-45
2021/12/21 11:41:33;;;;;;;26.05;8.95;;;;;;;7.28;52.13;102615.34;5017017;28;20049;-46
2021/12/21 11:44:14;;;;;;;31.90;10.02;;;;;;;7.93;53.38;102612.06;5012346;28;20069;-43
2021/12/21 11:47:04;;;;;;;30.23;9.05;;;;;;;8.20;51.68;102605.47;5014867;28;20040;-42
2021/12/21 11:49:38;;;;;;;25.20;9.00;;;;;;;8.94;49.19;102606.56;5023163;28;20037;-44
2021/12/21 11:52:09;;;;;;;19.55;8.27;;;;;;;8.69;48.46;102604.19;5022977;28;20026;-43
2021/12/21 11:54:46;;;;;;;23.95;7.65;;;;;;;8.52;50.12;102606.44;5025098;28;20171;-43
2021/12/21 11:57:11;;;;;;;20.70;8.05;;;;;;;8.56;49.76;102620.47;5027512;28;20027;-43
2021/12/21 11:59:37;;;;;;;19.55;8.48;;;;;;;8.71;49.25;102616.50;5018493;28;20046;-43
2021/12/21 12:02:04;;;;;;;23.73;8.38;;;;;;;8.63;48.76;102604.69;5018619;28;20057;-44
2021/12/21 12:04:29;;;;;;;25.58;8.98;;;;;;;7.74;49.69;102601.06;5022064;28;20022;-44
2021/12/21 12:06:57;;;;;;;22.27;7.95;;;;;;;6.95;51.50;102603.53;5018779;28;20032;-44
2021/12/21 12:09:33;;;;;;;29.00;8.18;;;;;;;6.38;53.24;102610.41;5020405;28;20064;-44
2021/12/21 12:12:14;;;;;;;19.38;8.40;;;;;;;6.48;53.90;102602.59;5024074;28;20073;-44
2021/12/21 12:14:41;;;;;;;22.45;7.88;;;;;;;6.41;54.19;102593.28;5021365;28;20481;-43